sensor_id;sensor_type;location;lat;lon;timestamp;pressure;altitude;pressure_sealevel;temperature
49785;BMP280;35679;38.732;-121.358;2023-08-24T00:00:47;100531.84;;;29.65
49785;BMP280;35679;38.732;-121.358;2023-08-24T00:03:36;100533.16;;;29.67
49785;BMP280;35679;38.732;-121.358;2023-08-24T00:06:30;100528.19;;;29.69
49785;BMP280;35679;38.732;-121.358;2023-08-24T00:09:20;100526.00;;;29.71
49785;BMP280;35679;38.732;-121.358;2023-08-24T00:12:09;100529.25;;;29.73
49785;BMP280;35679;38.732;-121.358;2023-08-24T00:14:59;100530.84;;;29.74
49785;BMP280;35679;38.732;-121.358;2023-08-24T00:17:48;100527.84;;;29.76
49785;BMP280;35679;38.732;-121.358;2023-08-24T00:20:39;100524.00;;;29.77
49785;BMP280;35679;38.732;-121.358;2023-08-24T00:23:28;100517.16;;;29.79
49785;BMP280;35679;38.732;-121.358;2023-08-24T00:26:18;100516.06;;;29.80
49785;BMP280;35679;38.732;-121.358;2023-08-24T00:29:07;100517.38;;;29.83
49785;BMP280;35679;38.732;-121.358;2023-08-24T00:31:56;100518.19;;;29.83
49785;BMP280;35679;38.732;-121.358;2023-08-24T00:34:46;100510.53;;;29.85
49785;BMP280;35679;38.732;-121.358;2023-08-24T00:37:36;100514.88;;;29.86
49785;BMP280;35679;38.732;-121.358;2023-08-24T00:40:25;100514.31;;;29.89
49785;BMP280;35679;38.732;-121.358;2023-08-24T00:43:15;100499.59;;;29.90
49785;BMP280;35679;38.732;-121.358;2023-08-24T00:46:05;100510.19;;;29.91
49785;BMP280;35679;38.732;-121.358;2023-08-24T00:48:54;100511.00;;;29.92
49785;BMP280;35679;38.732;-121.358;2023-08-24T00:51:47;100511.00;;;29.92
49785;BMP280;35679;38.732;-121.358;2023-08-24T00:54:37;100500.63;;;29.94
49785;BMP280;35679;38.732;-121.358;2023-08-24T00:57:28;100500.34;;;29.95
49785;BMP280;35679;38.732;-121.358;2023-08-24T01:00:17;100501.13;;;29.96
49785;BMP280;35679;38.732;-121.358;2023-08-24T01:03:07;100496.50;;;29.96
49785;BMP280;35679;38.732;-121.358;2023-08-24T01:05:56;100505.16;;;29.98
49785;BMP280;35679;38.732;-121.358;2023-08-24T01:08:46;100505.69;;;30.00
49785;BMP280;35679;38.732;-121.358;2023-08-24T01:17:46;100505.59;;;30.05
49785;BMP280;35679;38.732;-121.358;2023-08-24T01:20:37;100505.59;;;30.05
49785;BMP280;35679;38.732;-121.358;2023-08-24T01:23:48;100502.56;;;30.07
49785;BMP280;35679;38.732;-121.358;2023-08-24T01:26:41;100493.31;;;30.08
49785;BMP280;35679;38.732;-121.358;2023-08-24T01:29:31;100497.63;;;30.09
49785;BMP280;35679;38.732;-121.358;2023-08-24T01:32:21;100495.72;;;30.09
49785;BMP280;35679;38.732;-121.358;2023-08-24T01:35:10;100491.91;;;30.10
49785;BMP280;35679;38.732;-121.358;2023-08-24T01:38:00;100499.75;;;30.12
49785;BMP280;35679;38.732;-121.358;2023-08-24T01:41:02;100495.41;;;30.11
49785;BMP280;35679;38.732;-121.358;2023-08-24T01:43:58;100494.31;;;30.12
49785;BMP280;35679;38.732;-121.358;2023-08-24T01:46:49;100497.56;;;30.14
49785;BMP280;35679;38.732;-121.358;2023-08-24T01:49:41;100494.00;;;30.13
49785;BMP280;35679;38.732;-121.358;2023-08-24T01:52:31;100488.56;;;30.13
49785;BMP280;35679;38.732;-121.358;2023-08-24T01:55:23;100495.63;;;30.14
49785;BMP280;35679;38.732;-121.358;2023-08-24T01:58:12;100492.91;;;30.14
49785;BMP280;35679;38.732;-121.358;2023-08-24T02:01:02;100493.72;;;30.15
49785;BMP280;35679;38.732;-121.358;2023-08-24T02:03:52;100498.03;;;30.16
49785;BMP280;35679;38.732;-121.358;2023-08-24T02:06:41;100495.31;;;30.16
49785;BMP280;35679;38.732;-121.358;2023-08-24T02:09:31;100494.53;;;30.15
49785;BMP280;35679;38.732;-121.358;2023-08-24T02:12:20;100492.91;;;30.14
49785;BMP280;35679;38.732;-121.358;2023-08-24T02:15:09;100491.28;;;30.13
49785;BMP280;35679;38.732;-121.358;2023-08-24T02:17:59;100492.09;;;30.14
49785;BMP280;35679;38.732;-121.358;2023-08-24T02:20:49;100498.13;;;30.11
49785;BMP280;35679;38.732;-121.358;2023-08-24T02:23:39;100500.06;;;30.10
49785;BMP280;35679;38.732;-121.358;2023-08-24T02:26:28;100497.34;;;30.10
49785;BMP280;35679;38.732;-121.358;2023-08-24T02:29:18;100495.72;;;30.09
49785;BMP280;35679;38.732;-121.358;2023-08-24T02:32:09;100496.81;;;30.08
49785;BMP280;35679;38.732;-121.358;2023-08-24T02:34:58;100496.03;;;30.08
49785;BMP280;35679;38.732;-121.358;2023-08-24T02:37:50;100497.94;;;30.07
49785;BMP280;35679;38.732;-121.358;2023-08-24T02:40:40;100503.66;;;30.06
49785;BMP280;35679;38.732;-121.358;2023-08-24T02:43:30;100499.34;;;30.05
49785;BMP280;35679;38.732;-121.358;2023-08-24T02:46:21;100503.19;;;30.04
49785;BMP280;35679;38.732;-121.358;2023-08-24T02:49:15;100495.28;;;30.02
49785;BMP280;35679;38.732;-121.358;2023-08-24T02:52:04;100499.94;;;30.02
49785;BMP280;35679;38.732;-121.358;2023-08-24T02:54:55;100504.59;;;30.01
49785;BMP280;35679;38.732;-121.358;2023-08-24T02:57:45;100501.34;;;29.99
49785;BMP280;35679;38.732;-121.358;2023-08-24T03:00:38;100508.19;;;29.97
49785;BMP280;35679;38.732;-121.358;2023-08-24T03:03:27;100500.81;;;29.97
49785;BMP280;35679;38.732;-121.358;2023-08-24T03:06:17;100506.56;;;29.96
49785;BMP280;35679;38.732;-121.358;2023-08-24T03:09:07;100513.41;;;29.93
49785;BMP280;35679;38.732;-121.358;2023-08-24T03:11:56;100512.63;;;29.93
49785;BMP280;35679;38.732;-121.358;2023-08-24T03:14:46;100511.00;;;29.92
49785;BMP280;35679;38.732;-121.358;2023-08-24T03:17:35;100506.66;;;29.91
49785;BMP280;35679;38.732;-121.358;2023-08-24T03:20:25;100509.69;;;29.89
49785;BMP280;35679;38.732;-121.358;2023-08-24T03:23:18;100513.50;;;29.88
49785;BMP280;35679;38.732;-121.358;2023-08-24T03:26:07;100511.59;;;29.89
49785;BMP280;35679;38.732;-121.358;2023-08-24T03:28:56;100505.09;;;29.85
49785;BMP280;35679;38.732;-121.358;2023-08-24T03:31:46;100512.47;;;29.85
49785;BMP280;35679;38.732;-121.358;2023-08-24T03:34:36;100510.03;;;29.83
49785;BMP280;35679;38.732;-121.358;2023-08-24T03:37:25;100516.59;;;29.82
49785;BMP280;35679;38.732;-121.358;2023-08-24T03:40:15;100523.72;;;29.78
49785;BMP280;35679;38.732;-121.358;2023-08-24T03:43:04;100525.63;;;29.78
49785;BMP280;35679;38.732;-121.358;2023-08-24T03:45:54;100527.03;;;29.75
49785;BMP280;35679;38.732;-121.358;2023-08-24T03:48:43;100535.19;;;29.75
49785;BMP280;35679;38.732;-121.358;2023-08-24T03:51:33;100531.16;;;29.73
49785;BMP280;35679;38.732;-121.358;2023-08-24T03:54:22;100533.06;;;29.72
49785;BMP280;35679;38.732;-121.358;2023-08-24T03:57:12;100536.09;;;29.71
49785;BMP280;35679;38.732;-121.358;2023-08-24T04:00:01;100542.63;;;29.70
49785;BMP280;35679;38.732;-121.358;2023-08-24T04:03:00;100542.41;;;29.66
49785;BMP280;35679;38.732;-121.358;2023-08-24T04:05:51;100544.59;;;29.64
49785;BMP280;35679;38.732;-121.358;2023-08-24T04:08:40;100549.56;;;29.62
49785;BMP280;35679;38.732;-121.358;2023-08-24T04:11:30;100553.38;;;29.61
49785;BMP280;35679;38.732;-121.358;2023-08-24T04:14:19;100550.13;;;29.59
49785;BMP280;35679;38.732;-121.358;2023-08-24T04:17:09;100553.97;;;29.58
49785;BMP280;35679;38.732;-121.358;2023-08-24T04:19:58;100553.75;;;29.55
49785;BMP280;35679;38.732;-121.358;2023-08-24T04:22:48;100552.47;;;29.29
49785;BMP280;35679;38.732;-121.358;2023-08-24T04:25:40;100554.97;;;29.25
49785;BMP280;35679;38.732;-121.358;2023-08-24T04:28:29;100562.81;;;29.27
49785;BMP280;35679;38.732;-121.358;2023-08-24T04:31:18;100560.88;;;29.27
49785;BMP280;35679;38.732;-121.358;2023-08-24T04:34:08;100566.63;;;29.26
49785;BMP280;35679;38.732;-121.358;2023-08-24T04:36:58;100561.47;;;29.24
49785;BMP280;35679;38.732;-121.358;2023-08-24T04:39:47;100565.28;;;29.23
49785;BMP280;35679;38.732;-121.358;2023-08-24T04:42:36;100555.53;;;29.22
49785;BMP280;35679;38.732;-121.358;2023-08-24T04:45:26;100559.88;;;29.23
49785;BMP280;35679;38.732;-121.358;2023-08-24T04:48:15;100551.47;;;29.20
49785;BMP280;35679;38.732;-121.358;2023-08-24T04:51:05;100553.69;;;29.18
49785;BMP280;35679;38.732;-121.358;2023-08-24T04:53:54;100555.09;;;29.16
49785;BMP280;35679;38.732;-121.358;2023-08-24T04:56:44;100553.47;;;29.15
49785;BMP280;35679;38.732;-121.358;2023-08-24T04:59:33;100549.13;;;29.14
49785;BMP280;35679;38.732;-121.358;2023-08-24T05:02:23;100551.06;;;29.13
49785;BMP280;35679;38.732;-121.358;2023-08-24T05:05:12;100555.66;;;29.13
49785;BMP280;35679;38.732;-121.358;2023-08-24T05:08:06;100546.72;;;29.12
49785;BMP280;35679;38.732;-121.358;2023-08-24T05:11:00;100545.38;;;29.10
49785;BMP280;35679;38.732;-121.358;2023-08-24T05:13:49;100547.06;;;29.06
49785;BMP280;35679;38.732;-121.358;2023-08-24T05:16:39;100546.03;;;29.02
49785;BMP280;35679;38.732;-121.358;2023-08-24T05:19:29;100540.88;;;29.00
49785;BMP280;35679;38.732;-121.358;2023-08-24T05:22:18;100550.13;;;28.99
49785;BMP280;35679;38.732;-121.358;2023-08-24T05:25:08;100550.97;;;29.00
49785;BMP280;35679;38.732;-121.358;2023-08-24T05:27:57;100550.13;;;28.99
49785;BMP280;35679;38.732;-121.358;2023-08-24T05:30:47;100554.75;;;28.99
49785;BMP280;35679;38.732;-121.358;2023-08-24T05:33:36;100553.13;;;28.98
49785;BMP280;35679;38.732;-121.358;2023-08-24T05:36:25;100564.84;;;28.98
49785;BMP280;35679;38.732;-121.358;2023-08-24T05:39:15;100559.16;;;28.95
49785;BMP280;35679;38.732;-121.358;2023-08-24T05:42:05;100556.75;;;28.93
49785;BMP280;35679;38.732;-121.358;2023-08-24T05:44:54;100559.53;;;28.88
49785;BMP280;35679;38.732;-121.358;2023-08-24T05:47:44;100564.25;;;28.78
49785;BMP280;35679;38.732;-121.358;2023-08-24T05:50:33;100565.06;;;28.78
49785;BMP280;35679;38.732;-121.358;2023-08-24T05:53:23;100566.97;;;28.78
49785;BMP280;35679;38.732;-121.358;2023-08-24T05:56:12;100566.22;;;28.72
49785;BMP280;35679;38.732;-121.358;2023-08-24T05:59:02;100566.47;;;28.71
49785;BMP280;35679;38.732;-121.358;2023-08-24T06:01:53;100574.91;;;28.69
49785;BMP280;35679;38.732;-121.358;2023-08-24T06:04:42;100570.31;;;28.70
49785;BMP280;35679;38.732;-121.358;2023-08-24T06:07:32;100570.31;;;28.70
49785;BMP280;35679;38.732;-121.358;2023-08-24T06:10:22;100570.31;;;28.70
49785;BMP280;35679;38.732;-121.358;2023-08-24T06:13:11;100570.56;;;28.68
49785;BMP280;35679;38.732;-121.358;2023-08-24T06:16:01;100563.56;;;28.67
49785;BMP280;35679;38.732;-121.358;2023-08-24T06:18:51;100565.72;;;28.65
49785;BMP280;35679;38.732;-121.358;2023-08-24T06:21:40;100560.59;;;28.64
49785;BMP280;35679;38.732;-121.358;2023-08-24T06:24:29;100576.34;;;28.62
49785;BMP280;35679;38.732;-121.358;2023-08-24T06:27:19;100563.88;;;28.61
49785;BMP280;35679;38.732;-121.358;2023-08-24T06:30:09;100571.34;;;28.51
49785;BMP280;35679;38.732;-121.358;2023-08-24T06:32:59;100572.19;;;28.46
49785;BMP280;35679;38.732;-121.358;2023-08-24T06:35:48;100576.22;;;28.49
49785;BMP280;35679;38.732;-121.358;2023-08-24T06:38:38;100580.56;;;28.50
49785;BMP280;35679;38.732;-121.358;2023-08-24T06:41:27;100583.28;;;28.50
49785;BMP280;35679;38.732;-121.358;2023-08-24T06:44:18;100583.88;;;28.47
49785;BMP280;35679;38.732;-121.358;2023-08-24T06:47:07;100579.28;;;28.42
49785;BMP280;35679;38.732;-121.358;2023-08-24T06:49:57;100575.78;;;28.42
49785;BMP280;35679;38.732;-121.358;2023-08-24T06:52:47;100570.59;;;28.40
49785;BMP280;35679;38.732;-121.358;2023-08-24T06:55:36;100575.53;;;28.38
49785;BMP280;35679;38.732;-121.358;2023-08-24T06:58:26;100570.38;;;28.37
49785;BMP280;35679;38.732;-121.358;2023-08-24T07:01:15;100577.72;;;28.36
49785;BMP280;35679;38.732;-121.358;2023-08-24T07:04:05;100576.09;;;28.35
49785;BMP280;35679;38.732;-121.358;2023-08-24T07:06:54;100579.09;;;28.34
49785;BMP280;35679;38.732;-121.358;2023-08-24T07:09:43;100576.66;;;28.32
49785;BMP280;35679;38.732;-121.358;2023-08-24T07:12:33;100578.84;;;28.30
49785;BMP280;35679;38.732;-121.358;2023-08-24T07:15:22;100587.28;;;28.29
49785;BMP280;35679;38.732;-121.358;2023-08-24T07:18:12;100579.72;;;28.26
49785;BMP280;35679;38.732;-121.358;2023-08-24T07:21:01;100579.19;;;28.24
49785;BMP280;35679;38.732;-121.358;2023-08-24T07:23:51;100580.88;;;28.20
49785;BMP280;35679;38.732;-121.358;2023-08-24T07:26:41;100578.69;;;28.17
49785;BMP280;35679;38.732;-121.358;2023-08-24T07:29:31;100582.47;;;28.16
49785;BMP280;35679;38.732;-121.358;2023-08-24T07:32:20;100587.91;;;28.16
49785;BMP280;35679;38.732;-121.358;2023-08-24T07:35:10;100585.47;;;28.14
49785;BMP280;35679;38.732;-121.358;2023-08-24T07:38:00;100593.09;;;28.12
49785;BMP280;35679;38.732;-121.358;2023-08-24T07:40:49;100584.44;;;28.10
49785;BMP280;35679;38.732;-121.358;2023-08-24T07:43:38;100589.84;;;28.10
49785;BMP280;35679;38.732;-121.358;2023-08-24T07:46:28;100582.81;;;28.09
49785;BMP280;35679;38.732;-121.358;2023-08-24T07:49:17;100577.97;;;28.06
49785;BMP280;35679;38.732;-121.358;2023-08-24T07:55:56;100575.81;;;28.03
49785;BMP280;35679;38.732;-121.358;2023-08-24T07:58:46;100578.81;;;28.02
49785;BMP280;35679;38.732;-121.358;2023-08-24T08:01:36;100579.91;;;28.01
49785;BMP280;35679;38.732;-121.358;2023-08-24T08:04:25;100582.09;;;27.99
49785;BMP280;35679;38.732;-121.358;2023-08-24T08:07:15;100586.19;;;27.96
49785;BMP280;35679;38.732;-121.358;2023-08-24T08:10:05;100585.66;;;27.94
49785;BMP280;35679;38.732;-121.358;2023-08-24T08:12:55;100584.03;;;27.93
49785;BMP280;35679;38.732;-121.358;2023-08-24T08:15:45;100584.31;;;27.92
49785;BMP280;35679;38.732;-121.358;2023-08-24T08:18:36;100580.56;;;27.88
49785;BMP280;35679;38.732;-121.358;2023-08-24T08:21:25;100583.56;;;27.86
49785;BMP280;35679;38.732;-121.358;2023-08-24T08:24:15;100584.94;;;27.84
49785;BMP280;35679;38.732;-121.358;2023-08-24T08:27:12;100590.63;;;27.83
49785;BMP280;35679;38.732;-121.358;2023-08-24T08:30:02;100593.31;;;27.83
49785;BMP280;35679;38.732;-121.358;2023-08-24T08:32:53;100595.53;;;27.81
49785;BMP280;35679;38.732;-121.358;2023-08-24T08:35:43;100590.66;;;27.78
49785;BMP280;35679;38.732;-121.358;2023-08-24T08:38:33;100589.84;;;27.77
49785;BMP280;35679;38.732;-121.358;2023-08-24T08:41:24;100583.63;;;27.77
49785;BMP280;35679;38.732;-121.358;2023-08-24T08:44:16;100578.75;;;27.74
49785;BMP280;35679;38.732;-121.358;2023-08-24T08:47:07;100585.25;;;27.73
49785;BMP280;35679;38.732;-121.358;2023-08-24T08:49:57;100574.72;;;27.71
49785;BMP280;35679;38.732;-121.358;2023-08-24T08:52:47;100575.78;;;27.70
49785;BMP280;35679;38.732;-121.358;2023-08-24T08:55:36;100578.78;;;27.69
49785;BMP280;35679;38.732;-121.358;2023-08-24T08:58:27;100576.38;;;27.67
49785;BMP280;35679;38.732;-121.358;2023-08-24T09:01:17;100580.44;;;27.65
49785;BMP280;35679;38.732;-121.358;2023-08-24T09:04:07;100577.19;;;27.63
49785;BMP280;35679;38.732;-121.358;2023-08-24T09:06:56;100572.34;;;27.60
49785;BMP280;35679;38.732;-121.358;2023-08-24T09:09:46;100576.16;;;27.59
49785;BMP280;35679;38.732;-121.358;2023-08-24T09:12:35;100582.13;;;27.56
49785;BMP280;35679;38.732;-121.358;2023-08-24T09:15:26;100577.50;;;27.56
49785;BMP280;35679;38.732;-121.358;2023-08-24T09:18:19;100574.25;;;27.54
49785;BMP280;35679;38.732;-121.358;2023-08-24T09:21:13;100575.63;;;27.52
49785;BMP280;35679;38.732;-121.358;2023-08-24T09:24:03;100581.88;;;27.52
49785;BMP280;35679;38.732;-121.358;2023-08-24T09:26:53;100576.72;;;27.51
49785;BMP280;35679;38.732;-121.358;2023-08-24T09:29:43;100574.28;;;27.49
49785;BMP280;35679;38.732;-121.358;2023-08-24T09:32:32;100583.50;;;27.48
49785;BMP280;35679;38.732;-121.358;2023-08-24T09:35:22;100572.66;;;27.48
49785;BMP280;35679;38.732;-121.358;2023-08-24T09:38:19;100574.31;;;27.44
49785;BMP280;35679;38.732;-121.358;2023-08-24T09:41:08;100577.31;;;27.43
49785;BMP280;35679;38.732;-121.358;2023-08-24T09:44:04;100573.78;;;27.42
49785;BMP280;35679;38.732;-121.358;2023-08-24T09:46:54;100581.09;;;27.42
49785;BMP280;35679;38.732;-121.358;2023-08-24T09:49:43;100576.25;;;27.39
49785;BMP280;35679;38.732;-121.358;2023-08-24T09:52:33;100584.66;;;27.37
49785;BMP280;35679;38.732;-121.358;2023-08-24T09:55:24;100576.00;;;27.35
49785;BMP280;35679;38.732;-121.358;2023-08-24T09:58:21;100580.63;;;27.35
49785;BMP280;35679;38.732;-121.358;2023-08-24T10:01:10;100573.84;;;27.32
49785;BMP280;35679;38.732;-121.358;2023-08-24T10:04:04;100581.16;;;27.32
49785;BMP280;35679;38.732;-121.358;2023-08-24T10:07:06;100578.19;;;27.28
49785;BMP280;35679;38.732;-121.358;2023-08-24T10:10:04;100576.59;;;27.27
49785;BMP280;35679;38.732;-121.358;2023-08-24T10:12:59;100577.94;;;27.25
49785;BMP280;35679;38.732;-121.358;2023-08-24T10:15:49;100574.44;;;27.24
49785;BMP280;35679;38.732;-121.358;2023-08-24T10:18:40;100575.50;;;27.23
49785;BMP280;35679;38.732;-121.358;2023-08-24T10:21:30;100569.84;;;27.20
49785;BMP280;35679;38.732;-121.358;2023-08-24T10:24:20;100569.84;;;27.20
49785;BMP280;35679;38.732;-121.358;2023-08-24T10:27:10;100565.53;;;27.19
49785;BMP280;35679;38.732;-121.358;2023-08-24T10:30:00;100569.59;;;27.17
49785;BMP280;35679;38.732;-121.358;2023-08-24T10:32:51;100570.69;;;27.16
49785;BMP280;35679;38.732;-121.358;2023-08-24T10:35:43;100565.56;;;27.14
49785;BMP280;35679;38.732;-121.358;2023-08-24T10:38:39;100566.63;;;27.13
49785;BMP280;35679;38.732;-121.358;2023-08-24T10:41:37;100563.94;;;27.13
49785;BMP280;35679;38.732;-121.358;2023-08-24T10:44:35;100563.38;;;27.11
49785;BMP280;35679;38.732;-121.358;2023-08-24T10:47:25;100567.19;;;27.10
49785;BMP280;35679;38.732;-121.358;2023-08-24T10:50:30;100566.66;;;27.08
49785;BMP280;35679;38.732;-121.358;2023-08-24T10:53:40;100559.91;;;27.06
49785;BMP280;35679;38.732;-121.358;2023-08-24T10:56:38;100560.97;;;27.05
49785;BMP280;35679;38.732;-121.358;2023-08-24T10:59:34;100555.84;;;27.03
49785;BMP280;35679;38.732;-121.358;2023-08-24T11:02:47;100553.28;;;26.48
49785;BMP280;35679;38.732;-121.358;2023-08-24T11:05:38;100560.09;;;25.82
49785;BMP280;35679;38.732;-121.358;2023-08-24T11:08:47;100569.53;;;25.69
49785;BMP280;35679;38.732;-121.358;2023-08-24T11:11:37;100560.03;;;25.57
49785;BMP280;35679;38.732;-121.358;2023-08-24T11:14:27;100564.59;;;25.36
49785;BMP280;35679;38.732;-121.358;2023-08-24T11:17:21;100561.88;;;25.36
49785;BMP280;35679;38.732;-121.358;2023-08-24T11:20:13;100557.81;;;25.29
49785;BMP280;35679;38.732;-121.358;2023-08-24T11:23:03;100560.19;;;25.11
49785;BMP280;35679;38.732;-121.358;2023-08-24T11:25:54;100555.22;;;24.93
49785;BMP280;35679;38.732;-121.358;2023-08-24T11:28:53;100550.84;;;24.82
49785;BMP280;35679;38.732;-121.358;2023-08-24T11:31:43;100549.78;;;24.83
49785;BMP280;35679;38.732;-121.358;2023-08-24T11:34:34;100550.06;;;24.81
49785;BMP280;35679;38.732;-121.358;2023-08-24T11:37:25;100546.78;;;24.74
49785;BMP280;35679;38.732;-121.358;2023-08-24T11:40:18;100547.50;;;24.55
49785;BMP280;35679;38.732;-121.358;2023-08-24T11:43:09;100541.84;;;24.56
49785;BMP280;35679;38.732;-121.358;2023-08-24T11:45:59;100545.31;;;24.52
49785;BMP280;35679;38.732;-121.358;2023-08-24T11:48:49;100544.72;;;24.45
49785;BMP280;35679;38.732;-121.358;2023-08-24T11:51:38;100542.81;;;24.41
49785;BMP280;35679;38.732;-121.358;2023-08-24T11:54:33;100542.50;;;24.37
49785;BMP280;35679;38.732;-121.358;2023-08-24T11:57:22;100547.56;;;24.29
49785;BMP280;35679;38.732;-121.358;2023-08-24T12:00:14;100552.13;;;24.23
49785;BMP280;35679;38.732;-121.358;2023-08-24T12:03:05;100554.25;;;24.21
49785;BMP280;35679;38.732;-121.358;2023-08-24T12:05:59;100557.72;;;24.17
49785;BMP280;35679;38.732;-121.358;2023-08-24T12:08:49;100553.09;;;24.07
49785;BMP280;35679;38.732;-121.358;2023-08-24T12:11:39;100560.91;;;24.09
49785;BMP280;35679;38.732;-121.358;2023-08-24T12:14:28;100571.34;;;24.00
49785;BMP280;35679;38.732;-121.358;2023-08-24T12:17:28;100568.34;;;23.97
49785;BMP280;35679;38.732;-121.358;2023-08-24T12:20:21;100571.25;;;23.90
49785;BMP280;35679;38.732;-121.358;2023-08-24T12:23:11;100573.66;;;23.87
49785;BMP280;35679;38.732;-121.358;2023-08-24T12:26:00;100573.88;;;23.80
49785;BMP280;35679;38.732;-121.358;2023-08-24T12:28:54;100572.13;;;23.70
49785;BMP280;35679;38.732;-121.358;2023-08-24T12:31:44;100569.03;;;23.56
49785;BMP280;35679;38.732;-121.358;2023-08-24T12:34:33;100577.63;;;23.53
49785;BMP280;35679;38.732;-121.358;2023-08-24T12:37:23;100581.13;;;23.54
49785;BMP280;35679;38.732;-121.358;2023-08-24T12:40:12;100588.53;;;23.42
49785;BMP280;35679;38.732;-121.358;2023-08-24T12:43:02;100588.19;;;23.33
49785;BMP280;35679;38.732;-121.358;2023-08-24T12:45:52;100590.75;;;23.23
49785;BMP280;35679;38.732;-121.358;2023-08-24T12:48:41;100589.88;;;23.18
49785;BMP280;35679;38.732;-121.358;2023-08-24T12:51:30;100590.94;;;23.17
49785;BMP280;35679;38.732;-121.358;2023-08-24T12:54:20;100592.88;;;23.21
49785;BMP280;35679;38.732;-121.358;2023-08-24T12:57:10;100592.13;;;23.26
49785;BMP280;35679;38.732;-121.358;2023-08-24T12:59:59;100595.84;;;23.20
49785;BMP280;35679;38.732;-121.358;2023-08-24T13:02:49;100603.28;;;23.13
49785;BMP280;35679;38.732;-121.358;2023-08-24T13:05:39;100609.41;;;23.09
49785;BMP280;35679;38.732;-121.358;2023-08-24T13:08:30;100606.41;;;23.05
49785;BMP280;35679;38.732;-121.358;2023-08-24T13:11:20;100606.91;;;23.02
49785;BMP280;35679;38.732;-121.358;2023-08-24T13:14:09;100605.44;;;22.95
49785;BMP280;35679;38.732;-121.358;2023-08-24T13:17:02;100613.97;;;22.87
49785;BMP280;35679;38.732;-121.358;2023-08-24T13:19:51;100615.22;;;22.84
49785;BMP280;35679;38.732;-121.358;2023-08-24T13:22:41;100617.13;;;22.84
49785;BMP280;35679;38.732;-121.358;2023-08-24T13:25:30;100617.19;;;22.89
49785;BMP280;35679;38.732;-121.358;2023-08-24T13:28:19;100619.75;;;22.79
49785;BMP280;35679;38.732;-121.358;2023-08-24T13:31:09;100624.19;;;22.68
49785;BMP280;35679;38.732;-121.358;2023-08-24T13:33:59;100630.28;;;22.64
49785;BMP280;35679;38.732;-121.358;2023-08-24T13:36:48;100627.78;;;22.57
49785;BMP280;35679;38.732;-121.358;2023-08-24T13:39:37;100635.84;;;22.57
49785;BMP280;35679;38.732;-121.358;2023-08-24T13:42:27;100641.72;;;22.54
49785;BMP280;35679;38.732;-121.358;2023-08-24T13:45:16;100640.72;;;22.60
49785;BMP280;35679;38.732;-121.358;2023-08-24T13:48:06;100645.59;;;22.63
49785;BMP280;35679;38.732;-121.358;2023-08-24T13:50:57;100650.19;;;22.63
49785;BMP280;35679;38.732;-121.358;2023-08-24T13:53:47;100650.34;;;22.56
49785;BMP280;35679;38.732;-121.358;2023-08-24T13:56:36;100646.63;;;22.57
49785;BMP280;35679;38.732;-121.358;2023-08-24T13:59:26;100652.97;;;22.51
49785;BMP280;35679;38.732;-121.358;2023-08-24T14:02:15;100653.22;;;22.50
49785;BMP280;35679;38.732;-121.358;2023-08-24T14:05:05;100649.69;;;22.49
49785;BMP280;35679;38.732;-121.358;2023-08-24T14:07:57;100663.47;;;22.53
49785;BMP280;35679;38.732;-121.358;2023-08-24T14:10:47;100668.34;;;22.56
49785;BMP280;35679;38.732;-121.358;2023-08-24T14:13:37;100669.09;;;22.51
49785;BMP280;35679;38.732;-121.358;2023-08-24T14:16:27;100666.41;;;22.51
49785;BMP280;35679;38.732;-121.358;2023-08-24T14:19:16;100674.47;;;22.51
49785;BMP280;35679;38.732;-121.358;2023-08-24T14:22:05;100669.19;;;22.56
49785;BMP280;35679;38.732;-121.358;2023-08-24T14:24:55;100662.75;;;22.57
49785;BMP280;35679;38.732;-121.358;2023-08-24T14:27:44;100671.38;;;22.59
49785;BMP280;35679;38.732;-121.358;2023-08-24T14:30:51;100671.63;;;22.58
49785;BMP280;35679;38.732;-121.358;2023-08-24T14:33:40;100668.13;;;22.57
49785;BMP280;35679;38.732;-121.358;2023-08-24T14:36:30;100673.59;;;22.62
49785;BMP280;35679;38.732;-121.358;2023-08-24T14:39:20;100679.03;;;22.67
49785;BMP280;35679;38.732;-121.358;2023-08-24T14:42:09;100687.66;;;22.69
49785;BMP280;35679;38.732;-121.358;2023-08-24T14:44:58;100698.50;;;22.74
49785;BMP280;35679;38.732;-121.358;2023-08-24T14:47:48;100685.38;;;22.78
49785;BMP280;35679;38.732;-121.358;2023-08-24T14:50:38;100687.88;;;22.84
49785;BMP280;35679;38.732;-121.358;2023-08-24T14:53:28;100694.97;;;22.90
49785;BMP280;35679;38.732;-121.358;2023-08-24T14:56:18;100701.00;;;22.97
49785;BMP280;35679;38.732;-121.358;2023-08-24T14:59:08;100688.22;;;23.04
49785;BMP280;35679;38.732;-121.358;2023-08-24T15:01:57;100695.31;;;23.10
49785;BMP280;35679;38.732;-121.358;2023-08-24T15:04:49;100692.91;;;23.13
49785;BMP280;35679;38.732;-121.358;2023-08-24T15:07:39;100695.72;;;23.23
49785;BMP280;35679;38.732;-121.358;2023-08-24T15:10:28;100704.72;;;23.29
49785;BMP280;35679;38.732;-121.358;2023-08-24T15:13:17;100697.81;;;23.38
49785;BMP280;35679;38.732;-121.358;2023-08-24T15:16:07;100709.22;;;23.45
49785;BMP280;35679;38.732;-121.358;2023-08-24T15:18:58;100704.97;;;23.49
49785;BMP280;35679;38.732;-121.358;2023-08-24T15:21:47;100706.97;;;23.58
49785;BMP280;35679;38.732;-121.358;2023-08-24T15:24:37;100711.63;;;23.68
49785;BMP280;35679;38.732;-121.358;2023-08-24T15:27:28;100703.69;;;23.77
49785;BMP280;35679;38.732;-121.358;2023-08-24T15:30:17;100710.28;;;23.86
49785;BMP280;35679;38.732;-121.358;2023-08-24T15:33:07;100704.94;;;23.91
49785;BMP280;35679;38.732;-121.358;2023-08-24T15:35:58;100703.94;;;23.97
49785;BMP280;35679;38.732;-121.358;2023-08-24T15:38:48;100706.16;;;24.05